Latest Weather Observations for Sydney - Observatory Hill

IDN60801

Issued at 12:32 pm EDT Saturday 25 March 2017 (issued every 30 minutes, with the page automatically refreshed every 10 minutes)

About weather observations | Map of weather stations | Latest weather observations for NSW | Other Formats
Station Details ID: 066062 Name: SYDNEY (OBSERVATORY HILL) Lat: -33.86 Lon: 151.21 Height: 39.0 m
Data from the previous 72 hours. | See also: Recent months at Sydney - Observatory Hill

* Apparent temperature (App Temp) for Sydney - Observatory Hill is calculated using temperature observations collected at Sydney - Observatory Hill and wind observations collected at Fort Denison, as wind observations are not currently provided for Sydney - Observatory Hill.

Date/Time
EDT
Temp
°C
App
Temp
°C
Dew
Point
°C
Rel
Hum
%
Delta-T
°C
Wind Press
QNH
hPa
Press
MSL
hPa
Rain since
9am
mm
Dir  Spd
km/h
Gust
km/h
Spd
kts
Gust
kts
25/12:30pm 23.1 21.8 14.7 59 5.0 ENE 15 - 8 - 1016.7 1016.6 0.0
25/12:00pm 23.0 21.5 14.3 58 5.1 E 15 - 8 - 1017.3 1017.2 0.0
25/11:30am 22.9 22.3 14.7 60 4.9 E 11 - 6 - 1017.3 1017.2 0.0
25/11:00am 22.7 23.2 15.0 61 4.6 E 6 - 3 - 1017.5 1017.4 0.0
25/10:30am 22.3 23.2 15.2 64 4.2 WSW 4 - 2 - 1017.8 1017.7 0.0
25/10:00am 21.7 21.9 14.6 64 4.2 W 7 - 4 - 1017.8 1017.7 0.0
25/09:30am 21.2 21.9 16.0 72 3.1 W 7 - 4 - 1017.7 1017.6 0.0
25/09:00am 20.2 20.4 16.8 81 2.1 WNW 11 - 6 - 1017.9 1017.8 4.8
25/08:30am 19.6 20.0 16.4 82 1.9 W 9 - 5 - 1017.5 1017.4 4.8
25/08:00am 19.3 20.6 16.2 82 1.9 NNE 4 - 2 - 1017.2 1017.1 4.8
25/07:30am 19.2 20.4 15.9 81 2.0 W 4 - 2 - 1017.3 1017.2 4.8
25/07:00am 19.3 20.1 15.8 80 2.1 NNW 6 - 3 - 1016.9 1016.8 4.8
25/06:30am 19.3 20.0 15.6 79 2.2 WNW 6 - 3 - 1017.3 1017.2 4.8
25/06:00am 19.2 19.4 15.7 80 2.1 W 9 - 5 - 1017.7 1017.6 4.8
25/05:30am 19.3 19.9 15.8 80 2.1 WNW 7 - 4 - 1017.5 1017.4 4.8
25/05:00am 19.3 20.0 15.6 79 2.2 WNW 6 - 3 - 1017.3 1017.2 4.8
25/04:30am 19.4 19.5 15.5 78 2.3 W 9 - 5 - 1017.5 1017.4 4.8
25/04:00am 19.3 18.9 15.2 77 2.4 W 11 - 6 - 1017.5 1017.4 4.8
25/03:30am 19.5 18.9 14.5 73 2.9 W 11 - 6 - 1017.4 1017.3 4.8
25/03:00am 20.0 19.6 14.1 69 3.4 W 9 - 5 - 1017.6 1017.5 4.8
25/02:30am 20.8 20.3 13.7 64 4.1 E 9 - 5 - 1017.9 1017.8 4.8
25/02:00am 21.0 19.8 12.9 60 4.6 E 11 - 6 - 1018.3 1018.2 4.8
25/01:30am 21.1 20.3 13.0 60 4.6 E 9 - 5 - 1018.8 1018.7 4.8
25/01:00am 21.0 19.1 12.9 60 4.6 E 15 - 8 - 1019.0 1018.9 4.8
25/12:30am 21.1 19.1 12.8 59 4.7 ESE 15 - 8 - 1019.4 1019.3 4.8
25/12:00am 21.1 19.1 12.8 59 4.7 E 15 - 8 - 1019.5 1019.4 4.8
 
Date/Time
EDT
Temp
°C
App
Temp
°C
Dew
Point
°C
Rel
Hum
%
Delta-T
°C
Wind Press
QNH
hPa
Press
MSL
hPa
Rain since
9am
mm
Dir  Spd
km/h
Gust
km/h
Spd
kts
Gust
kts
24/11:30pm 21.2 19.9 12.6 58 4.9 ESE 11 - 6 - 1020.1 1019.9 4.8
24/11:00pm 21.2 19.3 13.1 60 4.6 ESE 15 - 8 - 1020.3 1020.1 4.8
24/10:30pm 21.1 19.6 13.0 60 4.6 ESE 13 - 7 - 1020.3 1020.1 4.8
24/10:00pm 21.1 19.4 13.5 62 4.4 ESE 15 - 8 - 1020.1 1019.9 4.8
24/09:30pm 21.2 19.5 13.6 62 4.4 ESE 15 - 8 - 1020.3 1020.1 4.8
24/09:00pm 20.8 18.7 13.7 64 4.1 ESE 17 - 9 - 1019.9 1019.7 4.8
24/08:30pm 20.8 18.9 14.2 66 3.8 ESE 17 - 9 - 1019.4 1019.3 4.8
24/08:00pm 20.6 18.5 14.7 69 3.5 SE 19 - 10 - 1019.5 1019.4 4.8
24/07:30pm 21.0 20.9 14.9 68 3.6 ESE 9 - 5 - 1019.4 1019.3 4.8
24/07:00pm 21.1 20.7 15.2 69 3.5 ESE 11 - 6 - 1019.3 1019.2 4.8
24/06:30pm 21.0 20.5 15.8 72 3.1 ESE 13 - 7 - 1019.1 1019.0 4.8
24/06:00pm 20.5 20.4 16.1 76 2.6 SE 11 - 6 - 1019.2 1019.1 4.8
24/05:30pm 21.1 20.8 16.5 75 2.8 SE 13 - 7 - 1019.2 1019.1 4.8
24/05:00pm 21.5 20.7 16.0 71 3.3 SE 15 - 8 - 1019.1 1019.0 4.8
24/04:30pm 22.2 20.1 15.1 64 4.2 SE 20 - 11 - 1019.0 1018.9 4.8
24/04:00pm 23.3 21.5 16.1 64 4.4 SE 20 - 11 - 1018.9 1018.8 4.8
24/03:30pm 22.5 23.3 17.4 73 3.2 SSE 9 - 5 - 1019.0 1018.9 4.8
24/03:00pm 21.7 19.9 16.0 70 3.4 S 20 - 11 - 1019.2 1019.1 4.6
24/02:30pm 22.6 21.2 16.6 69 3.7 SSE 19 - 10 - 1019.4 1019.3 4.6
24/02:00pm 21.6 20.6 17.6 78 2.5 SSW 19 - 10 - 1019.8 1019.6 4.6
24/01:30pm 22.2 21.3 16.9 72 3.2 SSW 17 - 9 - 1020.1 1019.9 4.4
24/01:00pm 21.1 20.7 17.1 78 2.4 SSW 15 - 8 - 1020.1 1019.9 4.4
24/12:30pm 20.2 20.0 16.8 81 2.1 SSW 13 - 7 - 1020.4 1020.2 4.4
24/12:00pm 21.6 20.8 17.2 76 2.7 SSE 17 - 9 - 1020.4 1020.2 1.6
24/11:30am 22.6 22.3 16.4 68 3.8 SSE 13 - 7 - 1020.5 1020.3 0.0
24/11:00am 22.8 21.8 17.9 74 3.0 SSE 20 - 11 - 1020.6 1020.4 0.0
24/10:30am 21.8 21.6 17.6 77 2.6 S 15 - 8 - 1020.4 1020.2 0.0
24/10:00am 21.5 21.9 17.3 77 2.6 SW 11 - 6 - 1020.3 1020.1 0.0
24/09:30am 21.6 21.8 17.6 78 2.5 WNW 13 - 7 - 1020.0 1019.8 0.0
24/09:00am 20.4 20.7 17.8 85 1.6 W 13 - 7 - 1020.1 1019.9 10.2
24/08:30am 19.5 20.1 17.6 89 1.2 WSW 11 - 6 - 1020.0 1019.8 10.2
24/08:00am 18.9 18.8 17.0 89 1.1 W 13 - 7 - 1019.6 1019.5 10.2
24/07:30am 18.6 17.7 16.8 89 1.1 W 17 - 9 - 1019.5 1019.4 10.2
24/07:00am 18.7 17.8 16.9 89 1.1 W 17 - 9 - 1019.5 1019.4 10.0
24/06:30am 18.8 18.7 16.9 89 1.1 W 13 - 7 - 1019.1 1019.0 10.0
24/06:00am 18.9 18.4 17.0 89 1.1 W 15 - 8 - 1018.9 1018.8 10.0
24/05:30am 18.9 19.2 16.9 88 1.2 SSW 11 - 6 - 1018.7 1018.6 10.0
24/05:00am 19.1 19.4 17.1 88 1.2 WSW 11 - 6 - 1018.5 1018.4 9.4
24/04:30am 18.5 19.4 16.1 86 1.4 SSW 6 - 3 - 1018.2 1018.1 9.4
24/04:00am 19.0 18.2 17.1 89 1.2 S 17 - 9 - 1018.3 1018.2 9.4
24/03:30am 19.0 20.1 17.0 88 1.2 SE 7 - 4 - 1018.4 1018.3 9.2
24/03:00am 19.2 19.6 17.2 88 1.2 W 11 - 6 - 1018.5 1018.4 8.8
24/02:30am 19.3 20.6 17.1 87 1.3 SSW 6 - 3 - 1018.5 1018.4 8.8
24/02:00am 19.1 20.4 17.1 88 1.2 SSW 6 - 3 - 1018.9 1018.8 8.8
24/01:30am 19.2 20.3 17.2 88 1.2 SW 7 - 4 - 1018.8 1018.7 8.6
24/01:00am 19.1 20.2 17.1 88 1.2 SSE 7 - 4 - 1018.8 1018.7 8.4
24/12:30am 18.9 18.4 16.9 88 1.2 S 15 - 8 - 1018.8 1018.7 8.4
24/12:00am 19.1 18.3 17.1 88 1.2 SSW 17 - 9 - 1018.6 1018.5 8.2
 
Date/Time
EDT
Temp
°C
App
Temp
°C
Dew
Point
°C
Rel
Hum
%
Delta-T
°C
Wind Press
QNH
hPa
Press
MSL
hPa
Rain since
9am
mm
Dir  Spd
km/h
Gust
km/h
Spd
kts
Gust
kts
23/11:30pm 19.2 18.5 17.3 89 1.2 SSW 17 - 9 - 1018.7 1018.6 8.2
23/11:00pm 19.1 18.7 17.2 89 1.2 SW 15 - 8 - 1018.8 1018.7 7.4
23/10:30pm 19.1 17.9 17.1 88 1.2 SSW 19 - 10 - 1019.0 1018.9 6.8
23/10:00pm 19.4 18.7 17.4 88 1.2 SSW 17 - 9 - 1018.9 1018.8 5.8
23/09:30pm 19.5 19.6 17.5 88 1.2 WSW 13 - 7 - 1018.9 1018.8 5.4
23/09:00pm 19.7 19.9 17.7 88 1.2 SW 13 - 7 - 1018.6 1018.5 4.4
23/08:30pm 19.8 20.0 17.6 87 1.4 SW 13 - 7 - 1018.4 1018.3 3.8
23/08:00pm 19.8 20.0 17.6 87 1.3 SSW 13 - 7 - 1017.7 1017.6 3.8
23/07:30pm 19.9 20.5 17.7 87 1.4 SSW 11 - 6 - 1017.3 1017.2 3.6
23/07:00pm 20.0 20.3 17.8 87 1.4 SSW 13 - 7 - 1017.3 1017.2 3.6
23/06:30pm 20.1 20.3 17.7 86 1.5 SSW 13 - 7 - 1017.4 1017.3 3.6
23/06:00pm 20.2 21.1 17.6 85 1.6 SSW 9 - 5 - 1017.5 1017.4 2.6
23/05:30pm 20.7 20.0 17.3 81 2.1 SSW 17 - 9 - 1017.4 1017.3 0.4
23/05:00pm 20.9 20.2 17.3 80 2.2 S 17 - 9 - 1017.3 1017.2 0.2
23/04:30pm 21.1 20.5 17.5 80 2.2 SSW 17 - 9 - 1017.4 1017.3 0.2
23/04:00pm 21.5 21.2 17.3 77 2.6 SSW 15 - 8 - 1017.5 1017.4 0.0
23/03:30pm 22.2 21.5 17.3 74 3.0 SSW 17 - 9 - 1017.5 1017.4 0.0
23/03:00pm 22.2 20.7 16.7 71 3.4 SSW 20 - 11 - 1017.5 1017.4 0.0
23/02:30pm 22.9 21.5 17.1 70 3.6 S 20 - 11 - 1017.6 1017.5 0.0
23/02:00pm 22.7 21.2 16.7 69 3.7 SSW 20 - 11 - 1017.8 1017.7 0.0
23/01:30pm 22.4 21.3 16.4 69 3.6 SSW 17 - 9 - 1018.4 1018.3 0.0
23/01:00pm 22.8 21.2 16.6 68 3.8 SSW 20 - 11 - 1018.9 1018.8 0.0
23/12:30pm 23.0 22.2 17.0 69 3.7 SSW 17 - 9 - 1019.0 1018.9 0.0
23/12:00pm 22.5 21.1 16.5 69 3.6 SSW 19 - 10 - 1019.3 1019.2 0.0
23/11:30am 22.4 20.9 16.4 69 3.6 SSW 19 - 10 - 1019.3 1019.2 0.0
23/11:00am 22.4 21.2 16.2 68 3.7 SSW 17 - 9 - 1019.2 1019.1 0.0
23/10:30am 22.6 21.6 16.6 69 3.7 SSW 17 - 9 - 1019.1 1019.0 0.0
23/10:00am 22.3 21.2 16.3 69 3.6 SSW 17 - 9 - 1018.9 1018.8 0.0
23/09:30am 22.1 21.2 16.8 72 3.2 SSW 17 - 9 - 1018.7 1018.6 0.0
23/09:00am 21.5 20.0 16.2 72 3.2 SSW 19 - 10 - 1018.6 1018.5 18.2
23/08:30am 21.2 20.4 16.2 73 3.0 SSW 15 - 8 - 1018.4 1018.3 18.2
23/08:00am 21.1 19.7 16.5 75 2.8 SSW 19 - 10 - 1018.0 1017.9 18.2
23/07:30am 20.9 19.3 16.5 76 2.7 SSW 20 - 11 - 1017.7 1017.6 18.2
23/07:00am 20.8 19.7 16.4 76 2.7 SSW 17 - 9 - 1017.5 1017.4 18.2
23/06:30am 20.8 19.3 16.4 76 2.7 SSW 19 - 10 - 1017.2 1017.1 18.2
23/06:00am 20.8 19.2 16.4 76 2.7 SSW 20 - 11 - 1016.8 1016.7 18.2
23/05:30am 20.8 19.2 16.4 76 2.7 SSW 20 - 11 - 1016.6 1016.5 18.2
23/05:00am 20.9 18.9 16.5 76 2.7 SSW 22 - 12 - 1016.3 1016.2 18.2
23/04:30am 20.8 18.9 16.6 77 2.5 SSW 22 - 12 - 1016.4 1016.3 18.2
23/04:00am 20.9 19.1 16.9 78 2.4 SSW 22 - 12 - 1016.3 1016.2 18.2
23/03:30am 21.0 20.2 17.2 79 2.3 SSW 17 - 9 - 1016.3 1016.2 18.2
23/03:00am 21.0 19.9 17.2 79 2.3 SSW 19 - 10 - 1016.3 1016.2 18.2
23/02:30am 21.2 20.0 17.6 80 2.2 SSW 20 - 11 - 1016.5 1016.4 18.2
23/02:00am 21.4 19.9 17.8 80 2.2 SSW 22 - 12 - 1016.6 1016.5 18.2
23/01:30am 21.5 20.6 18.1 81 2.1 SSW 20 - 11 - 1016.6 1016.5 18.2
23/01:00am 21.5 20.7 18.5 83 1.9 SSW 20 - 11 - 1016.5 1016.4 18.2
23/12:30am 21.5 20.3 18.5 83 1.9 SSW 22 - 12 - 1016.3 1016.2 18.2
23/12:00am 21.7 21.1 18.9 84 1.8 SSW 20 - 11 - 1016.4 1016.3 18.2
 
Date/Time
EDT
Temp
°C
App
Temp
°C
Dew
Point
°C
Rel
Hum
%
Delta-T
°C
Wind Press
QNH
hPa
Press
MSL
hPa
Rain since
9am
mm
Dir  Spd
km/h
Gust
km/h
Spd
kts
Gust
kts
22/11:30pm 22.2 21.8 19.4 84 1.8 SSW 20 - 11 - 1016.3 1016.2 18.2
22/11:00pm 22.4 22.1 19.6 84 1.8 S 20 - 11 - 1016.4 1016.3 18.2
22/10:30pm 22.4 22.4 19.8 85 1.7 S 19 - 10 - 1016.2 1016.1 18.2
22/10:00pm 22.6 23.9 20.1 86 1.6 SSE 13 - 7 - 1016.1 1016.0 18.0
22/09:30pm 22.0 23.0 19.4 85 1.7 SSW 13 - 7 - 1015.3 1015.2 18.0
22/09:00pm 21.6 22.7 18.8 84 1.8 WSW 11 - 6 - 1015.1 1015.0 18.0
22/08:30pm 21.6 23.3 18.4 82 2.0 S 7 - 4 - 1014.1 1014.0 18.0
22/08:00pm 21.3 21.0 18.3 83 1.9 WSW 17 - 9 - 1013.3 1013.2 18.0
22/07:30pm 21.5 20.8 18.7 84 1.8 WSW 20 - 11 - 1013.5 1013.4 18.0
22/07:00pm 22.3 23.9 19.1 82 2.0 WNW 9 - 5 - 1012.8 1012.7 18.0
22/06:30pm 21.8 23.1 19.4 86 1.5 ENE 11 - 6 - 1012.4 1012.3 18.0
22/06:00pm 21.8 22.9 19.7 88 1.3 SE 13 - 7 - 1012.7 1012.6 18.0
22/05:30pm 21.6 18.0 18.6 83 1.9 SW 35 - 19 - 1014.2 1014.1 9.4
22/05:28pm 21.8 - 18.8 83 1.9 - - - - - 1014.1 1014.0 9.2
22/05:00pm 25.1 28.7 21.2 79 2.6 SSW 4 - 2 - 1012.1 1012.0 2.4
22/04:30pm 25.0 25.3 19.6 72 3.5 WNW 17 - 9 - 1011.4 1011.3 1.2
22/04:00pm 27.7 29.2 20.5 65 4.7 ENE 13 - 7 - 1010.4 1010.3 0.0
22/03:30pm 29.3 29.5 20.5 59 5.8 ENE 20 - 11 - 1010.7 1010.6 0.0
22/03:00pm 29.8 30.1 20.4 57 6.2 E 19 - 10 - 1010.8 1010.7 0.0
22/02:30pm 30.4 30.6 19.4 51 7.2 E 17 - 9 - 1011.0 1010.9 0.0
22/02:00pm 31.3 34.0 20.3 52 7.3 NW 6 - 3 - 1011.3 1011.2 0.0
22/01:30pm 29.9 32.4 19.9 55 6.6 NW 6 - 3 - 1011.5 1011.4 0.0
22/01:00pm 30.1 33.3 20.4 56 6.4 ESE 4 - 2 - 1011.5 1011.4 0.0

Other Formats:

Comma delimited format used in spreadsheet applications
http://www.bom.gov.au/fwo/IDN60801/IDN60801.94768.axf

JavaScript Object Notation format (JSON) in row-major order
http://www.bom.gov.au/fwo/IDN60801/IDN60801.94768.json